sensor_id;sensor_type;location;lat;lon;timestamp;P1;durP1;ratioP1;P2;durP2;ratioP2
5333;SDS011;2689;50.954;7.116;2023-05-16T00:00:09;10.60;;;5.60;;
5333;SDS011;2689;50.954;7.116;2023-05-16T00:02:37;8.97;;;5.30;;
5333;SDS011;2689;50.954;7.116;2023-05-16T00:05:05;8.70;;;6.00;;
5333;SDS011;2689;50.954;7.116;2023-05-16T00:07:34;8.57;;;5.77;;
5333;SDS011;2689;50.954;7.116;2023-05-16T00:10:01;5.13;;;4.10;;
5333;SDS011;2689;50.954;7.116;2023-05-16T00:12:31;7.97;;;5.37;;
5333;SDS011;2689;50.954;7.116;2023-05-16T00:14:58;9.00;;;6.43;;
5333;SDS011;2689;50.954;7.116;2023-05-16T00:17:26;7.23;;;5.00;;
5333;SDS011;2689;50.954;7.116;2023-05-16T00:19:53;6.87;;;4.73;;
5333;SDS011;2689;50.954;7.116;2023-05-16T00:22:22;6.20;;;5.27;;
5333;SDS011;2689;50.954;7.116;2023-05-16T00:24:52;6.70;;;5.13;;
5333;SDS011;2689;50.954;7.116;2023-05-16T00:27:19;6.60;;;4.43;;
5333;SDS011;2689;50.954;7.116;2023-05-16T00:29:46;7.33;;;4.67;;
5333;SDS011;2689;50.954;7.116;2023-05-16T00:32:13;7.67;;;5.17;;
5333;SDS011;2689;50.954;7.116;2023-05-16T00:34:41;6.93;;;5.10;;
5333;SDS011;2689;50.954;7.116;2023-05-16T00:37:08;6.00;;;4.53;;
5333;SDS011;2689;50.954;7.116;2023-05-16T00:39:35;4.87;;;4.20;;
5333;SDS011;2689;50.954;7.116;2023-05-16T00:42:02;8.03;;;4.87;;
5333;SDS011;2689;50.954;7.116;2023-05-16T00:44:28;5.83;;;5.10;;
5333;SDS011;2689;50.954;7.116;2023-05-16T00:46:55;5.43;;;4.40;;
5333;SDS011;2689;50.954;7.116;2023-05-16T00:49:24;6.70;;;5.30;;
5333;SDS011;2689;50.954;7.116;2023-05-16T00:51:54;7.50;;;5.60;;
5333;SDS011;2689;50.954;7.116;2023-05-16T00:54:22;8.07;;;5.50;;
5333;SDS011;2689;50.954;7.116;2023-05-16T00:56:53;7.00;;;6.00;;
5333;SDS011;2689;50.954;7.116;2023-05-16T00:59:20;12.30;;;7.60;;
5333;SDS011;2689;50.954;7.116;2023-05-16T01:01:47;8.70;;;7.73;;
5333;SDS011;2689;50.954;7.116;2023-05-16T01:04:15;16.43;;;7.97;;
5333;SDS011;2689;50.954;7.116;2023-05-16T01:06:42;9.43;;;8.47;;
5333;SDS011;2689;50.954;7.116;2023-05-16T01:09:10;14.50;;;9.03;;
5333;SDS011;2689;50.954;7.116;2023-05-16T01:11:40;7.90;;;7.10;;
5333;SDS011;2689;50.954;7.116;2023-05-16T01:14:16;9.77;;;8.13;;
5333;SDS011;2689;50.954;7.116;2023-05-16T01:16:49;12.07;;;7.30;;
5333;SDS011;2689;50.954;7.116;2023-05-16T01:19:54;7.57;;;6.60;;
5333;SDS011;2689;50.954;7.116;2023-05-16T01:22:34;7.33;;;5.20;;
5333;SDS011;2689;50.954;7.116;2023-05-16T01:25:16;6.83;;;5.70;;
5333;SDS011;2689;50.954;7.116;2023-05-16T01:27:55;6.90;;;5.50;;
5333;SDS011;2689;50.954;7.116;2023-05-16T01:30:23;6.93;;;5.57;;
5333;SDS011;2689;50.954;7.116;2023-05-16T01:32:50;6.27;;;5.60;;
5333;SDS011;2689;50.954;7.116;2023-05-16T01:35:17;5.80;;;4.97;;
5333;SDS011;2689;50.954;7.116;2023-05-16T01:37:46;5.70;;;4.17;;
5333;SDS011;2689;50.954;7.116;2023-05-16T01:40:17;5.63;;;5.00;;
5333;SDS011;2689;50.954;7.116;2023-05-16T01:42:51;5.77;;;3.73;;
5333;SDS011;2689;50.954;7.116;2023-05-16T01:45:24;4.90;;;4.30;;
5333;SDS011;2689;50.954;7.116;2023-05-16T01:47:55;11.33;;;5.27;;
5333;SDS011;2689;50.954;7.116;2023-05-16T01:50:28;5.10;;;4.50;;
5333;SDS011;2689;50.954;7.116;2023-05-16T01:52:59;5.40;;;4.00;;
5333;SDS011;2689;50.954;7.116;2023-05-16T01:55:35;7.20;;;4.83;;
5333;SDS011;2689;50.954;7.116;2023-05-16T01:58:10;14.63;;;5.27;;
5333;SDS011;2689;50.954;7.116;2023-05-16T02:00:39;6.93;;;5.10;;
5333;SDS011;2689;50.954;7.116;2023-05-16T02:03:06;5.90;;;5.00;;
5333;SDS011;2689;50.954;7.116;2023-05-16T02:05:33;6.17;;;5.20;;
5333;SDS011;2689;50.954;7.116;2023-05-16T02:08:00;6.23;;;5.70;;
5333;SDS011;2689;50.954;7.116;2023-05-16T02:10:27;7.53;;;5.10;;
5333;SDS011;2689;50.954;7.116;2023-05-16T02:12:54;5.60;;;5.10;;
5333;SDS011;2689;50.954;7.116;2023-05-16T02:15:25;5.40;;;4.87;;
5333;SDS011;2689;50.954;7.116;2023-05-16T02:17:52;5.70;;;5.20;;
5333;SDS011;2689;50.954;7.116;2023-05-16T02:20:20;5.93;;;4.57;;
5333;SDS011;2689;50.954;7.116;2023-05-16T02:22:46;5.27;;;4.77;;
5333;SDS011;2689;50.954;7.116;2023-05-16T02:25:14;7.53;;;5.20;;
5333;SDS011;2689;50.954;7.116;2023-05-16T02:27:41;6.30;;;4.53;;
5333;SDS011;2689;50.954;7.116;2023-05-16T02:30:08;7.47;;;4.50;;
5333;SDS011;2689;50.954;7.116;2023-05-16T02:32:37;5.90;;;4.50;;
5333;SDS011;2689;50.954;7.116;2023-05-16T02:35:05;6.13;;;3.43;;
5333;SDS011;2689;50.954;7.116;2023-05-16T02:37:32;6.63;;;3.53;;
5333;SDS011;2689;50.954;7.116;2023-05-16T02:39:59;4.30;;;3.27;;
5333;SDS011;2689;50.954;7.116;2023-05-16T02:42:29;4.17;;;3.77;;
5333;SDS011;2689;50.954;7.116;2023-05-16T02:44:57;5.43;;;3.50;;
5333;SDS011;2689;50.954;7.116;2023-05-16T02:47:23;4.43;;;3.40;;
5333;SDS011;2689;50.954;7.116;2023-05-16T02:49:52;4.97;;;3.23;;
5333;SDS011;2689;50.954;7.116;2023-05-16T02:52:18;5.57;;;3.67;;
5333;SDS011;2689;50.954;7.116;2023-05-16T02:54:51;6.30;;;3.40;;
5333;SDS011;2689;50.954;7.116;2023-05-16T02:57:33;3.57;;;3.27;;
5333;SDS011;2689;50.954;7.116;2023-05-16T03:00:07;3.83;;;3.33;;
5333;SDS011;2689;50.954;7.116;2023-05-16T03:03:01;7.23;;;4.13;;
5333;SDS011;2689;50.954;7.116;2023-05-16T03:05:34;7.40;;;4.27;;
5333;SDS011;2689;50.954;7.116;2023-05-16T03:08:05;7.30;;;4.40;;
5333;SDS011;2689;50.954;7.116;2023-05-16T03:10:43;8.40;;;3.93;;
5333;SDS011;2689;50.954;7.116;2023-05-16T03:13:44;8.20;;;3.83;;
5333;SDS011;2689;50.954;7.116;2023-05-16T03:16:11;6.60;;;3.53;;
5333;SDS011;2689;50.954;7.116;2023-05-16T03:19:19;6.97;;;4.10;;
5333;SDS011;2689;50.954;7.116;2023-05-16T03:21:49;7.43;;;4.27;;
5333;SDS011;2689;50.954;7.116;2023-05-16T03:24:22;11.90;;;4.33;;
5333;SDS011;2689;50.954;7.116;2023-05-16T03:26:55;8.70;;;4.60;;
5333;SDS011;2689;50.954;7.116;2023-05-16T03:29:34;7.17;;;4.87;;
5333;SDS011;2689;50.954;7.116;2023-05-16T03:32:26;9.23;;;4.80;;
5333;SDS011;2689;50.954;7.116;2023-05-16T03:34:56;7.67;;;3.47;;
5333;SDS011;2689;50.954;7.116;2023-05-16T03:37:37;4.90;;;3.17;;
5333;SDS011;2689;50.954;7.116;2023-05-16T03:40:22;13.10;;;4.43;;
5333;SDS011;2689;50.954;7.116;2023-05-16T03:42:56;9.93;;;4.30;;
5333;SDS011;2689;50.954;7.116;2023-05-16T03:45:43;14.13;;;4.33;;
5333;SDS011;2689;50.954;7.116;2023-05-16T03:48:10;8.60;;;3.30;;
5333;SDS011;2689;50.954;7.116;2023-05-16T03:50:37;11.07;;;4.17;;
5333;SDS011;2689;50.954;7.116;2023-05-16T03:53:11;11.33;;;5.20;;
5333;SDS011;2689;50.954;7.116;2023-05-16T03:55:57;9.23;;;4.13;;
5333;SDS011;2689;50.954;7.116;2023-05-16T03:58:24;13.50;;;4.53;;
5333;SDS011;2689;50.954;7.116;2023-05-16T04:00:51;11.60;;;4.23;;
5333;SDS011;2689;50.954;7.116;2023-05-16T04:03:18;10.50;;;4.13;;
5333;SDS011;2689;50.954;7.116;2023-05-16T04:05:45;9.93;;;4.43;;
5333;SDS011;2689;50.954;7.116;2023-05-16T04:08:13;8.43;;;5.60;;
5333;SDS011;2689;50.954;7.116;2023-05-16T04:10:39;10.97;;;5.10;;
5333;SDS011;2689;50.954;7.116;2023-05-16T04:13:06;11.10;;;5.17;;
5333;SDS011;2689;50.954;7.116;2023-05-16T04:15:33;15.47;;;6.33;;
5333;SDS011;2689;50.954;7.116;2023-05-16T04:18:00;21.37;;;5.50;;
5333;SDS011;2689;50.954;7.116;2023-05-16T04:20:27;19.40;;;5.97;;
5333;SDS011;2689;50.954;7.116;2023-05-16T04:23:57;13.30;;;5.57;;
5333;SDS011;2689;50.954;7.116;2023-05-16T04:26:16;10.40;;;4.80;;
5333;SDS011;2689;50.954;7.116;2023-05-16T04:28:43;16.93;;;6.77;;
5333;SDS011;2689;50.954;7.116;2023-05-16T04:31:17;21.83;;;6.90;;
5333;SDS011;2689;50.954;7.116;2023-05-16T04:33:44;12.67;;;6.10;;
5333;SDS011;2689;50.954;7.116;2023-05-16T04:36:11;12.37;;;6.60;;
5333;SDS011;2689;50.954;7.116;2023-05-16T04:38:38;18.67;;;6.20;;
5333;SDS011;2689;50.954;7.116;2023-05-16T04:41:06;12.20;;;5.40;;
5333;SDS011;2689;50.954;7.116;2023-05-16T04:43:34;16.33;;;5.40;;
5333;SDS011;2689;50.954;7.116;2023-05-16T04:46:01;11.80;;;5.50;;
5333;SDS011;2689;50.954;7.116;2023-05-16T04:48:28;18.47;;;6.33;;
5333;SDS011;2689;50.954;7.116;2023-05-16T04:50:54;23.13;;;6.50;;
5333;SDS011;2689;50.954;7.116;2023-05-16T04:53:21;14.23;;;5.83;;
5333;SDS011;2689;50.954;7.116;2023-05-16T04:55:48;12.03;;;5.57;;
5333;SDS011;2689;50.954;7.116;2023-05-16T04:58:15;11.87;;;5.07;;
5333;SDS011;2689;50.954;7.116;2023-05-16T05:00:43;18.83;;;5.67;;
5333;SDS011;2689;50.954;7.116;2023-05-16T05:03:09;16.43;;;4.30;;
5333;SDS011;2689;50.954;7.116;2023-05-16T05:05:36;14.90;;;4.40;;
5333;SDS011;2689;50.954;7.116;2023-05-16T05:08:04;12.73;;;3.87;;
5333;SDS011;2689;50.954;7.116;2023-05-16T05:10:31;13.00;;;3.60;;
5333;SDS011;2689;50.954;7.116;2023-05-16T05:12:58;11.97;;;3.70;;
5333;SDS011;2689;50.954;7.116;2023-05-16T05:15:25;14.67;;;4.10;;
5333;SDS011;2689;50.954;7.116;2023-05-16T05:17:55;12.67;;;3.50;;
5333;SDS011;2689;50.954;7.116;2023-05-16T05:20:21;14.10;;;4.17;;
5333;SDS011;2689;50.954;7.116;2023-05-16T05:22:51;16.57;;;4.97;;
5333;SDS011;2689;50.954;7.116;2023-05-16T05:25:23;15.07;;;3.70;;
5333;SDS011;2689;50.954;7.116;2023-05-16T05:28:04;17.80;;;4.80;;
5333;SDS011;2689;50.954;7.116;2023-05-16T05:30:38;15.13;;;4.13;;
5333;SDS011;2689;50.954;7.116;2023-05-16T05:33:09;11.10;;;4.60;;
5333;SDS011;2689;50.954;7.116;2023-05-16T05:35:45;11.43;;;3.27;;
5333;SDS011;2689;50.954;7.116;2023-05-16T05:38:23;17.70;;;4.27;;
5333;SDS011;2689;50.954;7.116;2023-05-16T05:40:55;10.40;;;3.90;;
5333;SDS011;2689;50.954;7.116;2023-05-16T05:43:22;14.07;;;3.17;;
5333;SDS011;2689;50.954;7.116;2023-05-16T05:45:50;15.17;;;4.40;;
5333;SDS011;2689;50.954;7.116;2023-05-16T05:48:20;14.40;;;4.40;;
5333;SDS011;2689;50.954;7.116;2023-05-16T05:50:47;12.67;;;4.10;;
5333;SDS011;2689;50.954;7.116;2023-05-16T05:53:15;8.73;;;4.30;;
5333;SDS011;2689;50.954;7.116;2023-05-16T05:55:44;11.83;;;5.30;;
5333;SDS011;2689;50.954;7.116;2023-05-16T05:58:11;11.10;;;4.33;;
5333;SDS011;2689;50.954;7.116;2023-05-16T06:00:38;13.80;;;4.43;;
5333;SDS011;2689;50.954;7.116;2023-05-16T06:03:06;12.30;;;5.20;;
5333;SDS011;2689;50.954;7.116;2023-05-16T06:05:34;12.93;;;4.77;;
5333;SDS011;2689;50.954;7.116;2023-05-16T06:08:02;8.97;;;5.70;;
5333;SDS011;2689;50.954;7.116;2023-05-16T06:10:29;15.87;;;6.60;;
5333;SDS011;2689;50.954;7.116;2023-05-16T06:12:56;18.20;;;6.10;;
5333;SDS011;2689;50.954;7.116;2023-05-16T06:15:23;17.80;;;6.17;;
5333;SDS011;2689;50.954;7.116;2023-05-16T06:17:50;13.93;;;5.73;;
5333;SDS011;2689;50.954;7.116;2023-05-16T06:20:17;17.63;;;6.80;;
5333;SDS011;2689;50.954;7.116;2023-05-16T06:22:46;12.90;;;6.07;;
5333;SDS011;2689;50.954;7.116;2023-05-16T06:25:13;11.70;;;5.07;;
5333;SDS011;2689;50.954;7.116;2023-05-16T06:27:39;9.83;;;3.93;;
5333;SDS011;2689;50.954;7.116;2023-05-16T06:30:07;12.60;;;5.20;;
5333;SDS011;2689;50.954;7.116;2023-05-16T06:32:34;14.77;;;5.07;;
5333;SDS011;2689;50.954;7.116;2023-05-16T06:35:01;15.13;;;4.80;;
5333;SDS011;2689;50.954;7.116;2023-05-16T06:37:28;13.03;;;3.80;;
5333;SDS011;2689;50.954;7.116;2023-05-16T06:39:56;13.80;;;4.00;;
5333;SDS011;2689;50.954;7.116;2023-05-16T06:42:24;12.80;;;4.17;;
5333;SDS011;2689;50.954;7.116;2023-05-16T06:44:51;11.87;;;3.90;;
5333;SDS011;2689;50.954;7.116;2023-05-16T06:47:18;9.20;;;3.70;;
5333;SDS011;2689;50.954;7.116;2023-05-16T06:49:45;6.27;;;3.20;;
5333;SDS011;2689;50.954;7.116;2023-05-16T06:52:12;9.50;;;3.83;;
5333;SDS011;2689;50.954;7.116;2023-05-16T06:54:39;9.93;;;3.13;;
5333;SDS011;2689;50.954;7.116;2023-05-16T06:57:09;13.53;;;3.40;;
5333;SDS011;2689;50.954;7.116;2023-05-16T06:59:37;9.00;;;3.07;;
5333;SDS011;2689;50.954;7.116;2023-05-16T07:02:05;16.37;;;3.87;;
5333;SDS011;2689;50.954;7.116;2023-05-16T07:04:32;11.17;;;4.10;;
5333;SDS011;2689;50.954;7.116;2023-05-16T07:07:01;16.17;;;3.70;;
5333;SDS011;2689;50.954;7.116;2023-05-16T07:09:29;9.53;;;3.50;;
5333;SDS011;2689;50.954;7.116;2023-05-16T07:11:56;15.33;;;4.47;;
5333;SDS011;2689;50.954;7.116;2023-05-16T07:14:24;9.60;;;3.47;;
5333;SDS011;2689;50.954;7.116;2023-05-16T07:16:54;9.57;;;2.87;;
5333;SDS011;2689;50.954;7.116;2023-05-16T07:19:21;9.40;;;3.00;;
5333;SDS011;2689;50.954;7.116;2023-05-16T07:21:51;8.57;;;2.40;;
5333;SDS011;2689;50.954;7.116;2023-05-16T07:24:17;7.80;;;2.90;;
5333;SDS011;2689;50.954;7.116;2023-05-16T07:26:44;12.27;;;3.03;;
5333;SDS011;2689;50.954;7.116;2023-05-16T07:29:11;10.80;;;2.67;;
5333;SDS011;2689;50.954;7.116;2023-05-16T07:31:40;12.03;;;2.60;;
5333;SDS011;2689;50.954;7.116;2023-05-16T07:34:08;6.27;;;1.83;;
5333;SDS011;2689;50.954;7.116;2023-05-16T07:36:35;10.60;;;2.07;;
5333;SDS011;2689;50.954;7.116;2023-05-16T07:39:02;7.83;;;2.33;;
5333;SDS011;2689;50.954;7.116;2023-05-16T07:41:29;12.90;;;2.47;;
5333;SDS011;2689;50.954;7.116;2023-05-16T07:43:56;8.37;;;1.93;;
5333;SDS011;2689;50.954;7.116;2023-05-16T07:46:23;5.40;;;1.90;;
5333;SDS011;2689;50.954;7.116;2023-05-16T07:48:52;12.60;;;2.10;;
5333;SDS011;2689;50.954;7.116;2023-05-16T07:51:18;8.23;;;1.90;;
5333;SDS011;2689;50.954;7.116;2023-05-16T07:53:46;9.33;;;2.27;;
5333;SDS011;2689;50.954;7.116;2023-05-16T07:56:13;7.37;;;2.33;;
5333;SDS011;2689;50.954;7.116;2023-05-16T07:58:40;7.77;;;1.80;;
5333;SDS011;2689;50.954;7.116;2023-05-16T08:01:07;10.53;;;1.73;;
5333;SDS011;2689;50.954;7.116;2023-05-16T08:03:34;9.77;;;2.10;;
5333;SDS011;2689;50.954;7.116;2023-05-16T08:06:02;6.97;;;1.90;;
5333;SDS011;2689;50.954;7.116;2023-05-16T08:08:29;6.77;;;1.87;;
5333;SDS011;2689;50.954;7.116;2023-05-16T08:10:56;11.13;;;1.93;;
5333;SDS011;2689;50.954;7.116;2023-05-16T08:13:26;5.73;;;1.67;;
5333;SDS011;2689;50.954;7.116;2023-05-16T08:15:53;6.60;;;1.73;;
5333;SDS011;2689;50.954;7.116;2023-05-16T08:18:22;3.93;;;1.57;;
5333;SDS011;2689;50.954;7.116;2023-05-16T08:20:49;6.30;;;2.10;;
5333;SDS011;2689;50.954;7.116;2023-05-16T08:23:20;5.83;;;1.47;;
5333;SDS011;2689;50.954;7.116;2023-05-16T08:25:47;7.23;;;1.70;;
5333;SDS011;2689;50.954;7.116;2023-05-16T08:28:14;7.07;;;2.17;;
5333;SDS011;2689;50.954;7.116;2023-05-16T08:30:41;5.77;;;1.53;;
5333;SDS011;2689;50.954;7.116;2023-05-16T08:33:08;3.97;;;1.60;;
5333;SDS011;2689;50.954;7.116;2023-05-16T08:35:35;6.97;;;1.87;;
5333;SDS011;2689;50.954;7.116;2023-05-16T08:38:02;8.10;;;1.90;;
5333;SDS011;2689;50.954;7.116;2023-05-16T08:40:31;6.40;;;1.90;;
5333;SDS011;2689;50.954;7.116;2023-05-16T08:42:58;5.63;;;1.63;;
5333;SDS011;2689;50.954;7.116;2023-05-16T08:45:27;5.00;;;1.70;;
5333;SDS011;2689;50.954;7.116;2023-05-16T08:47:55;4.70;;;1.93;;
5333;SDS011;2689;50.954;7.116;2023-05-16T08:50:27;9.27;;;1.70;;
5333;SDS011;2689;50.954;7.116;2023-05-16T08:52:57;4.23;;;1.73;;
5333;SDS011;2689;50.954;7.116;2023-05-16T08:55:32;5.63;;;1.93;;
5333;SDS011;2689;50.954;7.116;2023-05-16T08:58:01;4.50;;;1.80;;
5333;SDS011;2689;50.954;7.116;2023-05-16T09:00:30;4.37;;;1.63;;
5333;SDS011;2689;50.954;7.116;2023-05-16T09:02:57;10.13;;;1.63;;
5333;SDS011;2689;50.954;7.116;2023-05-16T09:05:28;4.40;;;1.30;;
5333;SDS011;2689;50.954;7.116;2023-05-16T09:07:55;6.10;;;1.70;;
5333;SDS011;2689;50.954;7.116;2023-05-16T09:10:22;4.40;;;1.63;;
5333;SDS011;2689;50.954;7.116;2023-05-16T09:12:54;3.77;;;1.10;;
5333;SDS011;2689;50.954;7.116;2023-05-16T09:15:43;3.03;;;1.37;;
5333;SDS011;2689;50.954;7.116;2023-05-16T09:18:29;4.50;;;1.83;;
5333;SDS011;2689;50.954;7.116;2023-05-16T09:20:56;9.33;;;1.37;;
5333;SDS011;2689;50.954;7.116;2023-05-16T09:23:42;8.03;;;1.63;;
5333;SDS011;2689;50.954;7.116;2023-05-16T09:26:12;4.50;;;1.63;;
5333;SDS011;2689;50.954;7.116;2023-05-16T09:28:48;5.07;;;1.70;;
5333;SDS011;2689;50.954;7.116;2023-05-16T09:31:27;9.97;;;1.47;;
5333;SDS011;2689;50.954;7.116;2023-05-16T09:34:03;3.83;;;1.67;;
5333;SDS011;2689;50.954;7.116;2023-05-16T09:36:37;6.80;;;1.40;;
5333;SDS011;2689;50.954;7.116;2023-05-16T09:39:10;4.90;;;2.13;;
5333;SDS011;2689;50.954;7.116;2023-05-16T09:54:34;7.60;;;2.17;;
5333;SDS011;2689;50.954;7.116;2023-05-16T09:57:04;7.30;;;2.07;;
5333;SDS011;2689;50.954;7.116;2023-05-16T09:59:34;6.53;;;1.87;;
5333;SDS011;2689;50.954;7.116;2023-05-16T10:02:14;5.10;;;1.60;;
5333;SDS011;2689;50.954;7.116;2023-05-16T10:04:42;5.03;;;1.70;;
5333;SDS011;2689;50.954;7.116;2023-05-16T10:07:12;6.80;;;1.47;;
5333;SDS011;2689;50.954;7.116;2023-05-16T10:09:40;5.07;;;1.50;;
5333;SDS011;2689;50.954;7.116;2023-05-16T10:12:08;4.60;;;1.33;;
5333;SDS011;2689;50.954;7.116;2023-05-16T10:14:38;8.33;;;1.30;;
5333;SDS011;2689;50.954;7.116;2023-05-16T10:17:07;4.57;;;1.40;;
5333;SDS011;2689;50.954;7.116;2023-05-16T10:19:39;4.90;;;1.83;;
5333;SDS011;2689;50.954;7.116;2023-05-16T10:22:07;5.73;;;1.83;;
5333;SDS011;2689;50.954;7.116;2023-05-16T10:24:43;10.60;;;4.50;;
5333;SDS011;2689;50.954;7.116;2023-05-16T10:27:17;2.43;;;1.17;;
5333;SDS011;2689;50.954;7.116;2023-05-16T10:29:45;5.53;;;1.20;;
5333;SDS011;2689;50.954;7.116;2023-05-16T10:32:16;6.23;;;1.50;;
5333;SDS011;2689;50.954;7.116;2023-05-16T10:34:44;3.70;;;1.70;;
5333;SDS011;2689;50.954;7.116;2023-05-16T10:37:11;7.83;;;1.60;;
5333;SDS011;2689;50.954;7.116;2023-05-16T10:39:39;8.93;;;1.87;;
5333;SDS011;2689;50.954;7.116;2023-05-16T10:42:06;4.93;;;1.97;;
5333;SDS011;2689;50.954;7.116;2023-05-16T10:44:33;3.80;;;1.47;;
5333;SDS011;2689;50.954;7.116;2023-05-16T10:47:04;3.37;;;1.70;;
5333;SDS011;2689;50.954;7.116;2023-05-16T10:49:31;3.77;;;1.57;;
5333;SDS011;2689;50.954;7.116;2023-05-16T10:52:02;15.50;;;2.30;;
5333;SDS011;2689;50.954;7.116;2023-05-16T10:54:33;9.07;;;1.60;;
5333;SDS011;2689;50.954;7.116;2023-05-16T10:57:04;8.50;;;3.80;;
5333;SDS011;2689;50.954;7.116;2023-05-16T10:59:43;5.60;;;1.67;;
5333;SDS011;2689;50.954;7.116;2023-05-16T11:02:39;5.73;;;1.70;;
5333;SDS011;2689;50.954;7.116;2023-05-16T11:05:07;4.80;;;1.53;;
5333;SDS011;2689;50.954;7.116;2023-05-16T11:07:42;3.30;;;1.20;;
5333;SDS011;2689;50.954;7.116;2023-05-16T11:10:29;5.60;;;1.23;;
5333;SDS011;2689;50.954;7.116;2023-05-16T11:13:03;4.10;;;1.50;;
5333;SDS011;2689;50.954;7.116;2023-05-16T11:15:33;4.60;;;1.30;;
5333;SDS011;2689;50.954;7.116;2023-05-16T11:18:04;5.00;;;1.27;;
5333;SDS011;2689;50.954;7.116;2023-05-16T11:20:32;1.97;;;1.20;;
5333;SDS011;2689;50.954;7.116;2023-05-16T11:23:17;2.53;;;1.10;;
5333;SDS011;2689;50.954;7.116;2023-05-16T11:25:48;5.00;;;1.60;;
5333;SDS011;2689;50.954;7.116;2023-05-16T11:28:19;5.33;;;2.40;;
5333;SDS011;2689;50.954;7.116;2023-05-16T11:30:47;6.70;;;1.60;;
5333;SDS011;2689;50.954;7.116;2023-05-16T11:33:18;3.80;;;1.23;;
5333;SDS011;2689;50.954;7.116;2023-05-16T11:35:58;2.87;;;1.60;;
5333;SDS011;2689;50.954;7.116;2023-05-16T11:38:31;3.07;;;1.30;;
5333;SDS011;2689;50.954;7.116;2023-05-16T11:41:03;4.27;;;1.57;;
5333;SDS011;2689;50.954;7.116;2023-05-16T11:43:37;4.60;;;2.03;;
5333;SDS011;2689;50.954;7.116;2023-05-16T11:46:05;10.60;;;2.70;;
5333;SDS011;2689;50.954;7.116;2023-05-16T11:48:32;7.53;;;1.77;;
5333;SDS011;2689;50.954;7.116;2023-05-16T11:51:00;5.47;;;1.80;;
5333;SDS011;2689;50.954;7.116;2023-05-16T11:53:27;4.77;;;2.00;;
5333;SDS011;2689;50.954;7.116;2023-05-16T11:55:54;4.37;;;1.53;;
5333;SDS011;2689;50.954;7.116;2023-05-16T11:58:24;5.47;;;1.80;;
5333;SDS011;2689;50.954;7.116;2023-05-16T12:01:03;6.03;;;1.73;;
5333;SDS011;2689;50.954;7.116;2023-05-16T12:03:30;8.60;;;4.30;;
5333;SDS011;2689;50.954;7.116;2023-05-16T12:05:59;20.57;;;10.50;;
5333;SDS011;2689;50.954;7.116;2023-05-16T12:08:26;9.73;;;2.07;;
5333;SDS011;2689;50.954;7.116;2023-05-16T12:10:53;4.07;;;1.77;;
5333;SDS011;2689;50.954;7.116;2023-05-16T12:13:23;4.53;;;1.50;;
5333;SDS011;2689;50.954;7.116;2023-05-16T12:15:50;3.47;;;1.70;;
5333;SDS011;2689;50.954;7.116;2023-05-16T12:18:19;3.43;;;1.33;;
5333;SDS011;2689;50.954;7.116;2023-05-16T12:20:46;5.27;;;1.90;;
5333;SDS011;2689;50.954;7.116;2023-05-16T12:23:13;4.27;;;1.30;;
5333;SDS011;2689;50.954;7.116;2023-05-16T12:25:43;6.27;;;1.97;;
5333;SDS011;2689;50.954;7.116;2023-05-16T12:28:13;7.47;;;2.83;;
5333;SDS011;2689;50.954;7.116;2023-05-16T12:30:42;3.70;;;1.57;;
5333;SDS011;2689;50.954;7.116;2023-05-16T12:33:12;4.27;;;1.80;;
5333;SDS011;2689;50.954;7.116;2023-05-16T12:35:45;6.60;;;1.70;;
5333;SDS011;2689;50.954;7.116;2023-05-16T12:38:13;6.77;;;2.97;;
5333;SDS011;2689;50.954;7.116;2023-05-16T12:40:41;11.20;;;2.70;;
5333;SDS011;2689;50.954;7.116;2023-05-16T12:43:12;4.30;;;1.93;;
5333;SDS011;2689;50.954;7.116;2023-05-16T12:45:41;7.90;;;1.73;;
5333;SDS011;2689;50.954;7.116;2023-05-16T12:48:11;7.70;;;1.80;;
5333;SDS011;2689;50.954;7.116;2023-05-16T12:50:38;2.47;;;1.50;;
5333;SDS011;2689;50.954;7.116;2023-05-16T12:53:11;9.30;;;1.70;;
5333;SDS011;2689;50.954;7.116;2023-05-16T12:55:42;3.53;;;1.43;;
5333;SDS011;2689;50.954;7.116;2023-05-16T12:58:10;6.40;;;1.87;;
5333;SDS011;2689;50.954;7.116;2023-05-16T13:00:37;7.17;;;2.20;;
5333;SDS011;2689;50.954;7.116;2023-05-16T13:03:04;6.90;;;2.17;;
5333;SDS011;2689;50.954;7.116;2023-05-16T13:05:32;4.53;;;1.70;;
5333;SDS011;2689;50.954;7.116;2023-05-16T13:07:59;8.23;;;1.70;;
5333;SDS011;2689;50.954;7.116;2023-05-16T13:10:35;4.17;;;2.00;;
5333;SDS011;2689;50.954;7.116;2023-05-16T13:13:02;5.87;;;1.60;;
5333;SDS011;2689;50.954;7.116;2023-05-16T13:15:29;3.50;;;1.67;;
5333;SDS011;2689;50.954;7.116;2023-05-16T13:17:56;5.33;;;1.67;;
5333;SDS011;2689;50.954;7.116;2023-05-16T13:20:23;7.17;;;2.10;;
5333;SDS011;2689;50.954;7.116;2023-05-16T13:22:53;4.40;;;1.50;;
5333;SDS011;2689;50.954;7.116;2023-05-16T13:25:20;4.97;;;1.80;;
5333;SDS011;2689;50.954;7.116;2023-05-16T13:27:49;7.30;;;1.50;;
5333;SDS011;2689;50.954;7.116;2023-05-16T13:30:16;5.43;;;1.60;;
5333;SDS011;2689;50.954;7.116;2023-05-16T13:32:43;3.87;;;1.50;;
5333;SDS011;2689;50.954;7.116;2023-05-16T13:35:10;7.23;;;1.63;;
5333;SDS011;2689;50.954;7.116;2023-05-16T13:37:38;4.40;;;2.37;;
5333;SDS011;2689;50.954;7.116;2023-05-16T13:40:07;2.23;;;1.03;;
5333;SDS011;2689;50.954;7.116;2023-05-16T13:42:35;4.10;;;2.77;;
5333;SDS011;2689;50.954;7.116;2023-05-16T13:45:07;5.03;;;1.60;;
5333;SDS011;2689;50.954;7.116;2023-05-16T13:47:36;4.13;;;1.33;;
5333;SDS011;2689;50.954;7.116;2023-05-16T13:50:04;3.00;;;1.13;;
5333;SDS011;2689;50.954;7.116;2023-05-16T13:52:34;4.07;;;1.70;;
5333;SDS011;2689;50.954;7.116;2023-05-16T13:55:01;3.57;;;1.83;;
5333;SDS011;2689;50.954;7.116;2023-05-16T13:57:29;5.53;;;1.87;;
5333;SDS011;2689;50.954;7.116;2023-05-16T13:59:57;4.17;;;1.30;;
5333;SDS011;2689;50.954;7.116;2023-05-16T14:02:25;2.80;;;1.57;;
5333;SDS011;2689;50.954;7.116;2023-05-16T14:04:55;3.10;;;1.60;;
5333;SDS011;2689;50.954;7.116;2023-05-16T14:07:23;4.80;;;1.50;;
5333;SDS011;2689;50.954;7.116;2023-05-16T14:09:53;3.03;;;1.33;;
5333;SDS011;2689;50.954;7.116;2023-05-16T14:12:20;2.47;;;1.10;;
5333;SDS011;2689;50.954;7.116;2023-05-16T14:14:48;3.00;;;1.20;;
5333;SDS011;2689;50.954;7.116;2023-05-16T14:17:18;3.30;;;1.60;;
5333;SDS011;2689;50.954;7.116;2023-05-16T14:19:46;2.40;;;1.17;;
5333;SDS011;2689;50.954;7.116;2023-05-16T14:22:14;8.17;;;2.17;;
5333;SDS011;2689;50.954;7.116;2023-05-16T14:24:42;3.43;;;1.13;;
5333;SDS011;2689;50.954;7.116;2023-05-16T14:27:10;2.70;;;1.23;;
5333;SDS011;2689;50.954;7.116;2023-05-16T14:29:39;2.87;;;1.20;;
5333;SDS011;2689;50.954;7.116;2023-05-16T14:32:06;3.43;;;1.50;;
5333;SDS011;2689;50.954;7.116;2023-05-16T14:34:39;5.03;;;1.80;;
5333;SDS011;2689;50.954;7.116;2023-05-16T14:37:19;4.83;;;1.60;;
5333;SDS011;2689;50.954;7.116;2023-05-16T14:39:47;4.43;;;1.30;;
5333;SDS011;2689;50.954;7.116;2023-05-16T14:42:14;4.50;;;1.90;;
5333;SDS011;2689;50.954;7.116;2023-05-16T14:44:42;3.33;;;1.60;;
5333;SDS011;2689;50.954;7.116;2023-05-16T14:47:12;4.13;;;1.60;;
5333;SDS011;2689;50.954;7.116;2023-05-16T14:49:40;3.60;;;1.50;;
5333;SDS011;2689;50.954;7.116;2023-05-16T14:52:09;1.93;;;1.03;;
5333;SDS011;2689;50.954;7.116;2023-05-16T14:54:36;2.80;;;1.20;;
5333;SDS011;2689;50.954;7.116;2023-05-16T14:57:04;4.50;;;1.43;;
5333;SDS011;2689;50.954;7.116;2023-05-16T14:59:31;3.60;;;1.33;;
5333;SDS011;2689;50.954;7.116;2023-05-16T15:01:58;4.07;;;1.70;;
5333;SDS011;2689;50.954;7.116;2023-05-16T15:04:25;3.30;;;1.40;;
5333;SDS011;2689;50.954;7.116;2023-05-16T15:06:53;7.17;;;1.73;;
5333;SDS011;2689;50.954;7.116;2023-05-16T15:09:22;4.63;;;1.40;;
5333;SDS011;2689;50.954;7.116;2023-05-16T15:11:55;7.23;;;1.57;;
5333;SDS011;2689;50.954;7.116;2023-05-16T15:14:24;4.43;;;1.40;;
5333;SDS011;2689;50.954;7.116;2023-05-16T15:16:51;4.10;;;1.60;;
5333;SDS011;2689;50.954;7.116;2023-05-16T15:19:18;3.43;;;1.50;;
5333;SDS011;2689;50.954;7.116;2023-05-16T15:21:48;6.13;;;2.67;;
5333;SDS011;2689;50.954;7.116;2023-05-16T15:24:15;6.10;;;1.80;;
5333;SDS011;2689;50.954;7.116;2023-05-16T15:26:46;8.60;;;2.20;;
5333;SDS011;2689;50.954;7.116;2023-05-16T15:29:14;5.83;;;1.50;;
5333;SDS011;2689;50.954;7.116;2023-05-16T15:31:41;4.50;;;1.57;;
5333;SDS011;2689;50.954;7.116;2023-05-16T15:34:08;4.97;;;1.90;;
5333;SDS011;2689;50.954;7.116;2023-05-16T15:36:36;3.03;;;1.30;;
5333;SDS011;2689;50.954;7.116;2023-05-16T15:39:03;8.60;;;1.80;;
5333;SDS011;2689;50.954;7.116;2023-05-16T15:41:30;6.07;;;2.03;;